IDs: Format: Raw Decoded Include TAF

Data at: 0550 UTC 18 Mar 2018

METAR for:KFPR (Ft Pierce/St Lucie I, FL, US)
Text:KFPR 180453Z AUTO 24003KT 10SM CLR 16/14 A3000 RMK AO2 SLP158 T01610139 402780083
Temperature: 16.1°C ( 61°F)
Dewpoint: 13.9°C ( 57°F) [RH = 87%]
Pressure (altimeter):30.00 inches Hg (1016.0 mb) [Sea level pressure: 1015.8 mb]
Winds:from the WSW (240 degrees) at 3 MPH (3 knots; 1.5 m/s)
Visibility:10 or more sm (16+ km)
Ceiling:at least 12,000 feet AGL
Clouds:sky clear below 12,000 feet AGL
QC Flag:automated observation with no human augmentation